Home > Products > Valid Products > TAF

000
FTUS41 KBOX 200844 AAA
TAFMHT
TAF AMD
KMHT 200844Z 2009/2106 VRB03KT P6SM FEW250
     FM201400 12005KT P6SM FEW250
     FM201900 15007KT P6SM FEW130
     FM210300 17004KT P6SM FEW120=



000
FTUS41 KBOX 200844 AAA
TAFPVD
TAF AMD
KPVD 200844Z 2009/2106 01008KT P6SM SCT250
     FM201300 04007KT P6SM FEW250
     FM201800 10009KT P6SM FEW250
     FM210000 14007KT P6SM SCT250
     FM210500 VRB03KT P6SM FEW250=



000
FTUS41 KBOX 200844 AAA
TAFBOS
TAF AMD
KBOS 200844Z 2009/2112 VRB03KT P6SM SCT250
     FM201200 04007KT P6SM SCT250
     FM201600 08009KT P6SM SCT250
     FM202100 11011KT P6SM SCT250
     FM210100 14007KT P6SM SCT250
     FM210700 20004KT P6SM FEW200=



000
FTUS41 KBOX 200844 AAA
TAFBDL
TAF AMD
KBDL 200844Z 2009/2112 01006KT P6SM SCT250
     FM201500 07005KT P6SM FEW250
     FM201700 13006KT P6SM FEW250
     FM210000 18010KT P6SM SCT250
     FM210300 18006KT P6SM FEW250
     FM210600 00000KT P6SM FEW250=



000
FTUS41 KBOX 200844 AAA
TAFBOS
TAF AMD
KBOS 200844Z 2009/2112 VRB03KT P6SM SCT250
     FM201200 04007KT P6SM SCT250
     FM201600 08009KT P6SM SCT250
     FM202100 11011KT P6SM SCT250
     FM210100 14007KT P6SM SCT250
     FM210700 20004KT P6SM FEW200=



000
FTUS41 KBOX 200540
TAFORH
TAF
KORH 200540Z 2006/2106 02005KT P6SM FEW250
     FM201500 07005KT P6SM SKC
     FM201900 13006KT P6SM FEW130
     FM210300 19006KT P6SM SCT250=



000
FTUS41 KBOX 200540
TAFBDL
TAF
KBDL 200540Z 2006/2112 01004KT P6SM FEW250
     FM201500 07005KT P6SM FEW250
     FM201700 13006KT P6SM FEW250
     FM210000 18010KT P6SM SCT250
     FM210300 18006KT P6SM FEW250
     FM210600 00000KT P6SM FEW250=



000
FTUS41 KBOX 200540
TAFBOS
TAF
KBOS 200540Z 2006/2112 35007KT P6SM FEW250
     FM201200 04007KT P6SM SCT250
     FM201600 08009KT P6SM SCT250
     FM202100 11011KT P6SM SCT250
     FM210100 14007KT P6SM SCT250
     FM210700 20004KT P6SM FEW200=



000
FTUS41 KBOX 200540
TAFBOS
TAF
KBOS 200540Z 2006/2112 35007KT P6SM FEW250
     FM201200 04007KT P6SM SCT250
     FM201600 08009KT P6SM SCT250
     FM202100 11011KT P6SM SCT250
     FM210100 14007KT P6SM SCT250
     FM210700 20004KT P6SM FEW200=



000
FTUS41 KBOX 200540
TAFPVD
TAF
KPVD 200540Z 2006/2106 02012KT P6SM SCT250
     FM201300 04007KT P6SM FEW250
     FM201800 10009KT P6SM FEW250
     FM210000 14007KT P6SM SCT250
     FM210500 VRB03KT P6SM FEW250=



000
FTUS41 KBOX 200540
TAFMHT
TAF
KMHT 200540Z 2006/2106 36005KT P6SM SCT250
     FM201500 12005KT P6SM FEW250
     FM201900 15007KT P6SM FEW130
     FM210300 17004KT P6SM FEW120=



000
FTUS41 KBOX 200540
TAFACK
TAF
KACK 200540Z 2006/2106 02012KT P6SM BKN250
     FM202000 07012KT P6SM FEW250
     FM210400 09008KT P6SM FEW250=



000
FTUS41 KBOX 200540
TAFBAF
TAF
KBAF 200540Z 2006/2106 02004KT P6SM FEW250
     FM201400 07004KT P6SM SKC
     FM201700 14005KT P6SM FEW250
     FM210400 20004KT P6SM FEW250=



000
FTUS41 KBOX 192323
TAFBDL
TAF
KBDL 192323Z 2000/2106 36008KT P6SM SKC
     FM200400 01004KT P6SM SKC
     FM201600 07004KT P6SM SKC
     FM201900 18008KT P6SM FEW250=



000
FTUS41 KBOX 192323
TAFPVD
TAF
KPVD 192323Z 2000/2024 36008KT P6SM SKC
     FM200300 02004KT P6SM SKC
     FM201300 04008KT P6SM SKC
     FM202000 12010KT P6SM SKC=



000
FTUS41 KBOX 192323
TAFORH
TAF
KORH 192323Z 2000/2024 34008KT P6SM SKC
     FM201300 04006KT P6SM SKC
     FM201700 11006KT P6SM SKC=



000
FTUS41 KBOX 192323
TAFBOS
TAF
KBOS 192323Z 2000/2106 34011KT P6SM SKC
     FM200200 35006KT P6SM SKC
     FM201400 04007KT P6SM SKC
     FM201700 13011KT P6SM SKC
     FM210000 14006KT P6SM FEW200=



000
FTUS41 KBOX 192323
TAFMHT
TAF
KMHT 192323Z 2000/2024 33012KT P6SM SKC
     FM200200 33007KT P6SM SKC
     FM200900 VRB03KT P6SM SKC
     FM201800 14007KT P6SM SKC=



000
FTUS41 KBOX 192323
TAFBAF
TAF
KBAF 192323Z 2000/2024 36010KT P6SM SKC
     FM200300 01004KT P6SM SKC
     FM201700 13004KT P6SM SKC=



000
FTUS41 KBOX 192323
TAFACK
TAF
KACK 192323Z 2000/2024 00000KT P6SM FEW250
     FM200200 02006KT P6SM FEW250
     FM200400 02010KT P6SM SKC
     FM201800 06012KT P6SM SKC=



000
FTUS41 KBOX 192323
TAFBOS
TAF
KBOS 192323Z 2000/2106 34011KT P6SM SKC
     FM200200 35006KT P6SM SKC
     FM201400 04007KT P6SM SKC
     FM201700 13011KT P6SM SKC
     FM210000 14006KT P6SM FEW200=



000
FTUS41 KBOX 192109 AAA
TAFPVD
TAF AMD
KPVD 192109Z 1921/2018 35012G22KT P6SM FEW070 SCT250
     FM200200 01008KT P6SM SKC
     FM201400 05008KT P6SM SKC=



000
FTUS41 KBOX 192109 AAA
TAFMHT
TAF AMD
KMHT 192109Z 1921/2018 32014G26KT P6SM SCT060
     FM200100 34009KT P6SM SKC
     FM200500 35005KT P6SM SKC
     FM201400 08004KT P6SM SKC=



000
FTUS41 KBOX 192108 AAA
TAFBOS
TAF AMD
KBOS 192108Z 1921/2024 35014G23KT P6SM FEW050 SCT250
     FM200200 35009KT P6SM SKC
     FM201200 03008KT P6SM SKC
     FM201500 07008KT P6SM FEW250
     FM201800 11008KT P6SM FEW250=



000
FTUS41 KBOX 192108 AAA
TAFBOS
TAF AMD
KBOS 192108Z 1921/2024 35014G23KT P6SM FEW050 SCT250
     FM200200 35009KT P6SM SKC
     FM201200 03008KT P6SM SKC
     FM201500 07008KT P6SM FEW250
     FM201800 11008KT P6SM FEW250=



000
FTUS41 KBOX 192108 AAA
TAFBDL
TAF AMD
KBDL 192108Z 1921/2024 35014G23KT P6SM FEW060 SCT250
     FM192300 35010KT P6SM SKC
     FM200400 36006KT P6SM SKC
     FM201600 07004KT P6SM SKC
     FM201800 14004KT P6SM SKC=



000
FTUS41 KBOX 191737
TAFBAF
TAF
KBAF 191737Z 1918/2018 32017G25KT P6SM FEW050
     FM192300 36010KT P6SM SKC
     FM200300 01006KT P6SM SKC
     FM201700 13004KT P6SM SKC=



000
FTUS41 KBOX 191737
TAFORH
TAF
KORH 191737Z 1918/2018 34012G20KT P6SM FEW060
     FM200000 35010KT P6SM SKC
     FM200600 01006KT P6SM SKC
     FM201500 07005KT P6SM SKC=



000
FTUS41 KBOX 191737
TAFACK
TAF
KACK 191737Z 1918/2018 35010KT P6SM SKC
     FM200900 04013KT P6SM SKC=



000
FTUS41 KBOX 191737
TAFMHT
TAF
KMHT 191737Z 1918/2018 32015G26KT P6SM SCT060
     FM200100 34009KT P6SM SKC
     FM200500 35005KT P6SM SKC
     FM201400 08004KT P6SM SKC=



000
FTUS41 KBOX 191737
TAFPVD
TAF
KPVD 191737Z 1918/2018 32011G20KT P6SM FEW070 SCT250
     FM200200 01008KT P6SM SKC
     FM201400 05008KT P6SM SKC=



000
FTUS41 KBOX 191737
TAFBDL
TAF
KBDL 191737Z 1918/2024 32013G23KT P6SM FEW060 SCT250
     FM192300 35010KT P6SM SKC
     FM200400 36006KT P6SM SKC
     FM201600 07004KT P6SM SKC
     FM201800 14004KT P6SM SKC=



000
FTUS41 KBOX 191737
TAFBOS
TAF
KBOS 191737Z 1918/2024 33012G23KT P6SM FEW025 FEW050 SCT250
     FM200300 35009KT P6SM SKC
     FM201200 03008KT P6SM SKC
     FM201500 07008KT P6SM FEW250
     FM201800 11008KT P6SM FEW250=



000
FTUS41 KBOX 191737
TAFBOS
TAF
KBOS 191737Z 1918/2024 33012G23KT P6SM FEW025 FEW050 SCT250
     FM200300 35009KT P6SM SKC
     FM201200 03008KT P6SM SKC
     FM201500 07008KT P6SM FEW250
     FM201800 11008KT P6SM FEW250=



000
FTUS41 KBOX 191426 AAB
TAFBOS
TAF AMD
KBOS 191426Z 1914/2018 30012G20KT P6SM FEW050
     FM192200 33015G22KT P6SM SKC
     FM200300 36008KT P6SM SKC
     FM201300 04008KT P6SM FEW250
     FM201500 08008KT P6SM FEW250=



000
FTUS41 KBOX 191426 AAA
TAFPVD
TAF AMD
KPVD 191426Z 1914/2012 31010G20KT P6SM FEW250
     FM192100 34013KT P6SM SKC
     FM200000 36009KT P6SM SKC=



000
FTUS41 KBOX 191426 AAB
TAFBOS
TAF AMD
KBOS 191426Z 1914/2018 30012G20KT P6SM FEW050
     FM192200 33015G22KT P6SM SKC
     FM200300 36008KT P6SM SKC
     FM201300 04008KT P6SM FEW250
     FM201500 08008KT P6SM FEW250=



000
FTUS41 KBOX 191426 AAA
TAFBDL
TAF AMD
KBDL 191426Z 1914/2018 33010G20KT P6SM FEW040 SCT250
     FM200000 34008KT P6SM SKC
     FM200600 36004KT P6SM SKC
     FM201400 06004KT P6SM FEW250
     FM201700 12005KT P6SM FEW250=



000
FTUS41 KBOX 191426 AAB
TAFBAF
TAF AMD
KBAF 191426Z 1914/2012 32012G21KT P6SM FEW050
     FM200000 35008KT P6SM SKC
     FM200300 01004KT P6SM SKC=



000
FTUS41 KBOX 191426 AAA
TAFMHT
TAF AMD
KMHT 191426Z 1914/2012 33014G22KT P6SM FEW050 FEW200
     FM200100 34008KT P6SM SKC
     FM200400 35004KT P6SM SKC=



000
FTUS41 KBOX 191426 AAB
TAFORH
TAF AMD
KORH 191426Z 1914/2012 30014G25KT P6SM FEW050
     FM192300 34012G21KT P6SM SKC
     FM200200 35008KT P6SM SKC=



000
FTUS41 KBOX 191426 AAA
TAFACK
TAF AMD
KACK 191426Z 1914/2012 27014KT P6SM SKC
     FM191700 29013G22KT P6SM FEW050 FEW250
     FM192300 35009KT P6SM SKC
     FM200500 02013KT P6SM SKC=



000
FTUS41 KBOX 191323 AAA
TAFORH
TAF AMD
KORH 191323Z 1913/2012 30015G25KT P6SM SKC
     FM200100 35009KT P6SM SKC
     FM200600 36005KT P6SM SKC=



000
FTUS41 KBOX 191323 AAA
TAFBAF
TAF AMD
KBAF 191323Z 1913/2012 33010G20KT P6SM FEW050
     FM200200 36005KT P6SM SKC=



000
FTUS41 KBOX 191323 AAA
TAFBOS
TAF AMD
KBOS 191323Z 1913/2018 30012G22KT P6SM FEW050 FEW250
     FM192300 34010G20KT P6SM SKC
     FM200300 36008KT P6SM SKC
     FM201300 04008KT P6SM FEW250=



000
FTUS41 KBOX 191121
TAFBAF
TAF
KBAF 191121Z 1912/2012 32005KT P6SM SKC
     FM191500 33010G20KT P6SM FEW050
     FM200200 36005KT P6SM SKC=



000
FTUS41 KBOX 191121
TAFORH
TAF
KORH 191121Z 1912/2012 27010KT P6SM SKC
     FM191600 30015G25KT P6SM SKC
     FM200100 35009KT P6SM SKC
     FM200600 36005KT P6SM SKC=



000
FTUS41 KBOX 191121
TAFPVD
TAF
KPVD 191121Z 1912/2012 29005KT P6SM FEW250
     FM191500 32011G22KT P6SM SKC
     FM200000 36009KT P6SM SKC=



000
FTUS41 KBOX 191121
TAFBOS
TAF
KBOS 191121Z 1912/2018 25008KT P6SM FEW120
     FM191500 30012G22KT P6SM FEW050 FEW250
     FM192300 34010G20KT P6SM SKC
     FM200300 36008KT P6SM SKC
     FM201300 04008KT P6SM FEW250=



000
FTUS41 KBOX 191121
TAFACK
TAF
KACK 191121Z 1912/2012 29007KT P6SM FEW015
     FM191500 29013G22KT P6SM FEW050 FEW250
     FM192200 33010KT P6SM FEW050 FEW250
     FM200200 01010KT P6SM FEW250
     FM200600 02014G23KT P6SM SKC=



000
FTUS41 KBOX 191121
TAFMHT
TAF
KMHT 191121Z 1912/2012 29005KT P6SM FEW100
     FM191400 31010KT P6SM FEW250
     FM191800 32015G23KT P6SM FEW050 FEW250
     FM200100 34008KT P6SM SKC
     FM200400 35004KT P6SM SKC=



000
FTUS41 KBOX 191121
TAFBOS
TAF
KBOS 191121Z 1912/2018 25008KT P6SM FEW120
     FM191500 30012G22KT P6SM FEW050 FEW250
     FM192300 34010G20KT P6SM SKC
     FM200300 36008KT P6SM SKC
     FM201300 04008KT P6SM FEW250=



000
FTUS41 KBOX 191121
TAFBDL
TAF
KBDL 191121Z 1912/2018 30005KT P6SM SKC
     FM191400 32010G20KT P6SM FEW050
     FM200400 35006KT P6SM SKC
     FM200900 00000KT P6SM SKC=



000
FTUS41 KBOX 190819 AAA
TAFPVD
TAF AMD
KPVD 190819Z 1908/2006 24005KT P6SM BKN120
     FM191200 29005KT P6SM SCT250
     FM191400 31009G18KT P6SM FEW250
     FM192000 33013G21KT P6SM FEW050 SCT060
     FM200000 36009KT P6SM SKC=



000
FTUS41 KBOX 190818 AAA
TAFMHT
TAF AMD
KMHT 190818Z 1908/2006 00000KT P6SM FEW250
     FM191130 28005KT P6SM FEW250
     FM191300 31008KT P6SM FEW250
     FM191500 32013G25KT P6SM SCT050
     FM200000 34008KT P6SM SKC
     FM200400 35004KT P6SM SKC=



000
FTUS41 KBOX 190817 AAA
TAFBOS
TAF AMD
KBOS 190817Z 1908/2012 23007KT P6SM BKN200
     FM191300 29011KT P6SM FEW250
     FM191600 31013G23KT P6SM SCT050
     FM192200 34013G23KT P6SM FEW050
     FM200200 36008KT P6SM SKC=



000
FTUS41 KBOX 190817 AAA
TAFBOS
TAF AMD
KBOS 190817Z 1908/2012 23007KT P6SM BKN200
     FM191300 29011KT P6SM FEW250
     FM191600 31013G23KT P6SM SCT050
     FM192200 34013G23KT P6SM FEW050
     FM200200 36008KT P6SM SKC=



000
FTUS41 KBOX 190817 AAA
TAFBDL
TAF AMD
KBDL 190817Z 1908/2012 18006KT P6SM BKN250
     FM191200 28006KT P6SM FEW250
     FM191400 33011G21KT P6SM FEW050
     FM200000 35008KT P6SM SKC
     FM200600 36004KT P6SM SKC=



000
FTUS41 KBOX 190534
TAFORH
TAF
KORH 190534Z 1906/2006 26005KT P6SM BKN200
     FM191100 29010KT P6SM FEW250
     FM191400 31013G21KT P6SM FEW250
     FM192200 35010G22KT P6SM SKC
     FM200200 35008KT P6SM SKC=



000
FTUS41 KBOX 190534
TAFMHT
TAF
KMHT 190534Z 1906/2006 VRB03KT P6SM BKN250
     FM191300 31006KT P6SM FEW250
     FM191500 32013G25KT P6SM SCT050
     FM200000 34008KT P6SM SKC
     FM200400 35004KT P6SM SKC=



000
FTUS41 KBOX 190534
TAFPVD
TAF
KPVD 190534Z 1906/2006 22004KT P6SM BKN200
     FM191200 29005KT P6SM FEW080
     FM191400 31009G16KT P6SM FEW250
     FM192000 33013G21KT P6SM FEW050 SCT060
     FM200000 36009KT P6SM SKC=



000
FTUS41 KBOX 190534
TAFBDL
TAF
KBDL 190534Z 1906/2012 19004KT P6SM BKN150
     FM190800 26004KT P6SM SCT250
     FM191100 32005KT P6SM FEW250
     FM191400 33010G18KT P6SM FEW050
     FM200100 35008KT P6SM SKC
     FM200600 36004KT P6SM SKC=



000
FTUS41 KBOX 190534
TAFBAF
TAF
KBAF 190534Z 1906/2006 VRB03KT P6SM BKN200
     FM191300 32008KT P6SM FEW250
     FM191500 33013G23KT P6SM FEW050
     FM200000 35008KT P6SM SKC
     FM200300 01004KT P6SM SKC=



000
FTUS41 KBOX 190534
TAFBOS
TAF
KBOS 190534Z 1906/2012 19004KT P6SM BKN150
     FM190800 23005KT P6SM BKN150
     FM191300 28009KT P6SM FEW250
     FM191600 30013G20KT P6SM FEW050 SCT250
     FM192200 34013G23KT P6SM FEW050 FEW250
     FM200200 36008KT P6SM SKC=



000
FTUS41 KBOX 190534
TAFACK
TAF
KACK 190534Z 1906/2006 00000KT P6SM BKN200
     FM191000 27006KT P6SM BKN140
     FM191400 28010G17KT P6SM FEW250
     FM192000 32011G17KT P6SM FEW050 FEW250
     FM200000 36009KT P6SM FEW250
     FM200500 02013G20KT P6SM SKC=



000
FTUS41 KBOX 190534
TAFBOS
TAF
KBOS 190534Z 1906/2012 19004KT P6SM BKN150
     FM190800 23005KT P6SM BKN150
     FM191300 28009KT P6SM FEW250
     FM191600 30013G20KT P6SM FEW050 SCT250
     FM192200 34013G23KT P6SM FEW050 FEW250
     FM200200 36008KT P6SM SKC=



000
FTUS41 KBOX 182336 CCA
TAFBOS
TAF COR
KBOS 182336Z 1900/2006 11006KT P6SM BKN010 BKN020
     FM190300 12005KT P6SM SCT010 BKN025
     FM190500 18005KT P6SM BKN060
     FM190700 22005KT P6SM SCT090
     FM191300 28009KT P6SM FEW250
     FM191700 31014G23KT P6SM FEW250
     FM200300 35009KT P6SM SKC=



000
FTUS41 KBOX 182336 CCA
TAFBOS
TAF COR
KBOS 182336Z 1900/2006 11006KT P6SM BKN010 BKN020
     FM190300 12005KT P6SM SCT010 BKN025
     FM190500 18005KT P6SM BKN060
     FM190700 22005KT P6SM SCT090
     FM191300 28009KT P6SM FEW250
     FM191700 31014G23KT P6SM FEW250
     FM200300 35009KT P6SM SKC=



000
FTUS41 KBOX 182335
TAFORH
TAF
KORH 182335Z 1900/1924 21005KT P6SM BKN250
     FM190500 24006KT P6SM BKN140
     FM191100 28010KT P6SM FEW200
     FM191600 31013G22KT P6SM SKC
     FM192300 35010G19KT P6SM SKC=



000
FTUS41 KBOX 182335
TAFBOS
TAF
KBOS 182335Z 1900/2006 11006KT P6SM SCT010 BKN020
     FM190300 12005KT P6SM SCT010 BKN060
     FM190500 18005KT P6SM BKN090
     FM190700 22005KT P6SM SCT090
     FM191300 28009KT P6SM FEW250
     FM191700 31014G23KT P6SM FEW250
     FM200300 35009KT P6SM SKC=



000
FTUS41 KBOX 182335
TAFPVD
TAF
KPVD 182335Z 1900/1924 15007KT P6SM FEW035 BKN250
     FM190500 22004KT P6SM BKN090
     FM190700 23004KT P6SM SCT090
     FM191200 29007KT P6SM SCT250
     FM191700 32010G20KT P6SM FEW250=



000
FTUS41 KBOX 182335
TAFMHT
TAF
KMHT 182335Z 1900/1924 13006KT P6SM BKN200
     FM190600 00000KT P6SM BKN090
     FM190800 VRB03KT P6SM SCT090
     FM191300 29007KT P6SM FEW250
     FM191600 31012G22KT P6SM FEW250=



000
FTUS41 KBOX 182335
TAFACK
TAF
KACK 182335Z 1900/1924 06006KT P6SM BKN010
     FM190200 01005KT P6SM BKN012
     FM190600 00000KT 2SM BR BKN015
     FM190900 28006KT 1/4SM FG BKN050
     FM191000 28007KT 3SM BR SCT070
     FM191100 28009KT P6SM SCT100
     FM192000 32010G18KT P6SM FEW250
     FM192300 36009KT P6SM FEW250=



000
FTUS41 KBOX 182335
TAFBDL
TAF
KBDL 182335Z 1900/2006 19006KT P6SM BKN250
     FM190900 25005KT P6SM FEW080
     FM191200 31005KT P6SM SKC
     FM191500 32009KT P6SM SKC
     FM191800 33013G25KT P6SM SKC
     FM192300 35009KT P6SM SKC
     FM200400 36005KT P6SM SKC=



000
FTUS41 KBOX 182335
TAFBOS
TAF
KBOS 182335Z 1900/2006 11006KT P6SM SCT010 BKN020
     FM190300 12005KT P6SM SCT010 BKN060
     FM190500 18005KT P6SM BKN090
     FM190700 22005KT P6SM SCT090
     FM191300 28009KT P6SM FEW250
     FM191700 31014G23KT P6SM FEW250
     FM200300 35009KT P6SM SKC=



000
FTUS41 KBOX 182335
TAFBAF
TAF
KBAF 182335Z 1900/1924 20006KT P6SM BKN250
     FM190900 26005KT P6SM FEW090
     FM191200 32006KT P6SM FEW250
     FM191500 33010G18KT P6SM SKC
     FM191800 34014G26KT P6SM SKC
     FM192300 35009KT P6SM SKC=



000
FTUS41 KBOX 182120 AAA
TAFBOS
TAF AMD
KBOS 182120Z 1821/1924 09008KT P6SM BKN020 OVC120
     FM190100 16005KT P6SM BKN035
     FM190600 22005KT P6SM BKN140
     FM191300 28009KT P6SM FEW250
     FM191700 31014G25KT P6SM FEW250=



000
FTUS41 KBOX 182120 AAA
TAFBOS
TAF AMD
KBOS 182120Z 1821/1924 09008KT P6SM BKN020 OVC120
     FM190100 16005KT P6SM BKN035
     FM190600 22005KT P6SM BKN140
     FM191300 28009KT P6SM FEW250
     FM191700 31014G25KT P6SM FEW250=



000
FTUS41 KBOX 182120 AAA
TAFMHT
TAF AMD
KMHT 182120Z 1821/1918 09006KT P6SM SCT035 OVC200
     FM182300 12006KT P6SM BKN060
     FM190800 00000KT P6SM SCT090
     FM191300 29007KT P6SM FEW250
     FM191600 31012G22KT P6SM FEW250=



000
FTUS41 KBOX 182120 AAA
TAFBDL
TAF AMD
KBDL 182120Z 1821/1924 00000KT P6SM SCT050 OVC250
     FM190500 25005KT P6SM FEW250
     FM191200 31005KT P6SM SKC
     FM191600 33013G25KT P6SM SKC=



000
FTUS41 KBOX 182120 AAA
TAFPVD
TAF AMD
KPVD 182120Z 1821/1918 06006KT P6SM SCT035 OVC200
     FM190100 16005KT P6SM BKN040
     FM190500 22004KT P6SM BKN120
     FM191100 28006KT P6SM SCT250
     FM191700 32010G20KT P6SM FEW250=



000
FTUS41 KBOX 181722
TAFACK
TAF
KACK 181722Z 1818/1918 06011KT P6SM OVC015
     FM190200 35004KT P6SM BKN035
     FM190400 VRB03KT P6SM BKN060
     FM191000 28007KT P6SM SCT130
     FM191500 29011KT P6SM FEW250=



000
FTUS41 KBOX 181722
TAFBAF
TAF
KBAF 181722Z 1818/1918 VRB03KT P6SM SCT050 OVC250
     FM190500 26005KT P6SM FEW250
     FM191200 32006KT P6SM FEW250
     FM191600 33010G18KT P6SM SKC=



000
FTUS41 KBOX 181722
TAFPVD
TAF
KPVD 181722Z 1818/1918 06006KT P6SM BKN035
     FM190100 16005KT P6SM BKN040
     FM190500 22004KT P6SM BKN120
     FM191100 28006KT P6SM SCT250
     FM191700 32010G20KT P6SM FEW250=



000
FTUS41 KBOX 181722
TAFMHT
TAF
KMHT 181722Z 1818/1918 VRB03KT P6SM BKN035
     FM182300 12006KT P6SM BKN060
     FM190800 00000KT P6SM SCT090
     FM191300 29007KT P6SM FEW250
     FM191600 31012G22KT P6SM FEW250=



000
FTUS41 KBOX 181722
TAFBOS
TAF
KBOS 181722Z 1818/1924 06008KT P6SM OVC025
     FM190100 16005KT P6SM BKN035
     FM190600 22005KT P6SM BKN140
     FM191300 28009KT P6SM FEW250
     FM191700 31014G25KT P6SM FEW250=



000
FTUS41 KBOX 181722
TAFORH
TAF
KORH 181722Z 1818/1918 11005KT P6SM SCT025 OVC250
     FM190200 19005KT P6SM BKN080
     FM190600 25006KT P6SM SCT120
     FM191100 28010KT P6SM FEW250
     FM191600 31013G22KT P6SM SKC=



000
FTUS41 KBOX 181722
TAFBDL
TAF
KBDL 181722Z 1818/1924 00000KT P6SM SCT050 OVC250
     FM190500 25005KT P6SM FEW250
     FM191200 31005KT P6SM SKC
     FM191600 33013G25KT P6SM SKC=



000
FTUS41 KBOX 181722
TAFBOS
TAF
KBOS 181722Z 1818/1924 06008KT P6SM OVC025
     FM190100 16005KT P6SM BKN035
     FM190600 22005KT P6SM BKN140
     FM191300 28009KT P6SM FEW250
     FM191700 31014G25KT P6SM FEW250=



000
FTUS41 KBOX 181449 AAA
TAFPVD
TAF AMD
KPVD 181449Z 1815/1912 04009KT P6SM OVC025
     FM181800 10007KT P6SM BKN025
     FM190100 16005KT P6SM BKN150
     FM190500 22004KT P6SM SCT140
     FM191100 29006KT P6SM SCT250=



000
FTUS41 KBOX 181449 AAA
TAFORH
TAF AMD
KORH 181449Z 1815/1912 05005KT P6SM OVC015
     FM181800 12006KT P6SM BKN020
     FM190200 21005KT P6SM BKN150
     FM191000 27010KT P6SM SCT250=



000
FTUS41 KBOX 181448 AAA
TAFMHT
TAF AMD
KMHT 181448Z 1815/1912 06006KT P6SM OVC025
     FM181900 09005KT P6SM BKN025
     FM190200 16004KT P6SM BKN150
     FM190700 00000KT P6SM BKN100
     FM191000 00000KT P6SM SCT250=



000
FTUS41 KBOX 181447 AAA
TAFBAF
TAF AMD
KBAF 181447Z 1815/1912 05005KT P6SM OVC022
     FM181800 12005KT P6SM BKN025
     FM182100 18006KT P6SM SCT250
     FM190900 00000KT P6SM FEW250=



000
FTUS41 KBOX 181447 AAA
TAFBDL
TAF AMD
KBDL 181447Z 1815/1918 05006KT P6SM OVC025
     FM181800 12005KT P6SM BKN025
     FM182200 18006KT P6SM SCT025
     FM191000 26004KT P6SM FEW250
     FM191200 33006KT P6SM SKC
     FM191400 33011KT P6SM SKC=



000
FTUS41 KBOX 181122
TAFMHT
TAF
KMHT 181122Z 1812/1912 02005KT P6SM SCT200
     FM181500 09006KT P6SM BKN050
     FM190200 16004KT P6SM BKN150
     FM190700 00000KT P6SM BKN100
     FM191000 00000KT P6SM SCT250=



000
FTUS41 KBOX 181122
TAFBAF
TAF
KBAF 181122Z 1812/1912 02005KT P6SM FEW130
     FM181700 12005KT P6SM SCT250
     FM182100 18006KT P6SM SCT250
     FM190900 00000KT P6SM FEW250=



000
FTUS41 KBOX 181122
TAFBOS
TAF
KBOS 181122Z 1812/1918 04008KT P6SM BKN025
     FM181500 07008KT P6SM BKN025
     FM181700 09009KT P6SM BKN025
     FM190100 12005KT P6SM BKN150
     FM190400 20004KT P6SM BKN140
     FM191000 26007KT P6SM BKN250
     FM191400 29011KT P6SM FEW250=



000
FTUS41 KBOX 181122
TAFBOS
TAF
KBOS 181122Z 1812/1918 04008KT P6SM BKN025
     FM181500 07008KT P6SM BKN025
     FM181700 09009KT P6SM BKN025
     FM190100 12005KT P6SM BKN150
     FM190400 20004KT P6SM BKN140
     FM191000 26007KT P6SM BKN250
     FM191400 29011KT P6SM FEW250=



000
FTUS41 KBOX 181122
TAFORH
TAF
KORH 181122Z 1812/1912 05005KT P6SM BKN015
     FM181500 07007KT P6SM BKN025
     FM181800 12006KT P6SM FEW025
     FM190200 21005KT P6SM BKN150
     FM191000 27010KT P6SM SCT250=



000
FTUS41 KBOX 181122
TAFACK
TAF
KACK 181122Z 1812/1912 06014KT P6SM BKN015
     FM181600 06012KT P6SM BKN020
     FM182200 07008KT P6SM BKN025
     FM190200 VRB03KT P6SM BKN150
     FM191000 27007KT P6SM SCT140=



000
FTUS41 KBOX 181122
TAFBDL
TAF
KBDL 181122Z 1812/1918 02006KT P6SM FEW250
     FM181700 12005KT P6SM SCT250
     FM182200 18006KT P6SM SCT250
     FM191000 26004KT P6SM FEW250
     FM191200 33006KT P6SM SKC
     FM191400 33011KT P6SM SKC=



000
FTUS41 KBOX 181122
TAFPVD
TAF
KPVD 181122Z 1812/1912 04009KT P6SM BKN025
     FM181800 10007KT P6SM BKN050
     FM190100 16005KT P6SM BKN150
     FM190500 22004KT P6SM SCT140
     FM191100 29006KT P6SM SCT250=



000
FTUS41 KBOX 180851 AAA
TAFPVD
TAF AMD
KPVD 180851Z 1809/1906 04006KT P6SM FEW250
     FM181200 04007KT P6SM BKN020
     FM181500 05006KT P6SM SCT020
     FM181800 09005KT P6SM BKN030
     FM182000 13005KT P6SM BKN200
     FM190200 20004KT P6SM SCT150=



000
FTUS41 KBOX 180851 AAA
TAFMHT
TAF AMD
KMHT 180851Z 1809/1906 VRB03KT P6SM SKC
     FM181200 07004KT P6SM SCT020
     FM181600 10006KT P6SM BKN200
     FM190200 16004KT P6SM BKN150=



000
FTUS41 KBOX 180850 AAA
TAFBDL
TAF AMD
KBDL 180850Z 1809/1912 36005KT P6SM SKC
     FM182200 18007KT P6SM SCT150
     FM190800 VRB03KT P6SM SCT250=



000
FTUS41 KBOX 180849 AAA
TAFBOS
TAF AMD
KBOS 180849Z 1809/1912 06008KT P6SM SCT025 SCT250
     FM181200 07008KT P6SM BKN020
     FM181600 08007KT P6SM BKN250
     FM190200 16004KT P6SM BKN150
     FM190500 22004KT P6SM BKN140=



000
FTUS41 KBOX 180849 AAA
TAFBOS
TAF AMD
KBOS 180849Z 1809/1912 06008KT P6SM SCT025 SCT250
     FM181200 07008KT P6SM BKN020
     FM181600 08007KT P6SM BKN250
     FM190200 16004KT P6SM BKN150
     FM190500 22004KT P6SM BKN140=



000
FTUS41 KBOX 180849 AAA
TAFACK
TAF AMD
KACK 180849Z 1809/1906 06014KT P6SM -DZ BKN015
     FM181500 06012KT P6SM BKN020
     FM181700 05010KT P6SM BKN250
     FM182100 07008KT P6SM BKN200
     FM190000 VRB03KT P6SM BKN150=



000
FTUS41 KBOX 180540
TAFBOS
TAF
KBOS 180540Z 1806/1912 06008KT P6SM FEW025 SCT250
     FM181200 07008KT P6SM BKN020
     FM181600 08007KT P6SM BKN250
     FM190200 16004KT P6SM BKN150
     FM190500 22004KT P6SM BKN140=



000
FTUS41 KBOX 180540
TAFMHT
TAF
KMHT 180540Z 1806/1906 VRB03KT P6SM SKC
     FM181200 07004KT P6SM SCT020
     FM181600 10006KT P6SM BKN200
     FM190200 16004KT P6SM BKN150=



000
FTUS41 KBOX 180540
TAFBDL
TAF
KBDL 180540Z 1806/1912 01005KT P6SM SKC
     FM182200 18007KT P6SM SCT150
     FM190800 VRB03KT P6SM SCT250=



000
FTUS41 KBOX 180540
TAFPVD
TAF
KPVD 180540Z 1806/1906 04006KT P6SM FEW250
     FM181200 04007KT P6SM BKN015
     FM181500 05006KT P6SM SCT020
     FM181800 09005KT P6SM BKN030
     FM182000 13005KT P6SM BKN200
     FM190200 20004KT P6SM SCT150=



000
FTUS41 KBOX 180540
TAFORH
TAF
KORH 180540Z 1806/1906 06005KT P6SM SKC
     FM181200 07005KT P6SM SCT020
     FM181400 08006KT P6SM SCT250
     FM182000 14005KT P6SM SCT200
     FM190200 20005KT P6SM SCT150=



000
FTUS41 KBOX 180540
TAFBAF
TAF
KBAF 180540Z 1806/1906 VRB03KT P6SM SKC
     FM182100 18006KT P6SM SCT150=



000
FTUS41 KBOX 180540
TAFBOS
TAF
KBOS 180540Z 1806/1912 06008KT P6SM FEW025 SCT250
     FM181200 07008KT P6SM BKN020
     FM181600 08007KT P6SM BKN250
     FM190200 16004KT P6SM BKN150
     FM190500 22004KT P6SM BKN140=



000
FTUS41 KBOX 180540
TAFACK
TAF
KACK 180540Z 1806/1906 07015KT P6SM SCT025
     FM180800 06014KT P6SM -DZ BKN025
     FM181500 06012KT P6SM BKN020
     FM181700 05010KT P6SM BKN250
     FM182100 07008KT P6SM BKN200
     FM190000 VRB03KT P6SM BKN150=



000
FTUS41 KBOX 172327
TAFBDL
TAF
KBDL 172327Z 1800/1906 10009KT P6SM SCT070 BKN250
     FM180300 08005KT P6SM FEW250
     FM180500 01004KT P6SM FEW250
     FM181700 12005KT P6SM SCT250
     FM190100 18007KT P6SM SCT150=



000
FTUS41 KBOX 172327
TAFBAF
TAF
KBAF 172327Z 1800/1824 10006KT P6SM SCT250
     FM180500 VRB03KT P6SM FEW250
     FM182000 19007KT P6SM SCT200=



000
FTUS41 KBOX 172327
TAFACK
TAF
KACK 172327Z 1800/1824 06017KT P6SM SCT250
     FM180300 07017KT P6SM OVC090
     FM180500 07018KT P6SM -DZ OVC015
     FM180900 06012KT P6SM -DZ OVC010
     FM181300 06013KT P6SM -DZ OVC015
     FM181600 06012KT P6SM OVC020
     FM182200 08008KT P6SM OVC020=



000
FTUS41 KBOX 172327
TAFORH
TAF
KORH 172327Z 1800/1824 08009KT P6SM BKN250
     FM182000 15005KT P6SM SCT200=



000
FTUS41 KBOX 172327
TAFMHT
TAF
KMHT 172327Z 1800/1824 09007KT P6SM BKN250
     FM180300 00000KT P6SM SCT030 BKN250
     FM181500 11006KT P6SM BKN250=



000
FTUS41 KBOX 172327
TAFBOS
TAF
KBOS 172327Z 1800/1906 07010KT P6SM OVC250
     FM180300 07006KT P6SM BKN250
     FM181000 06007KT P6SM -DZ OVC010
     FM181200 06008KT P6SM OVC015
     FM181600 10010KT P6SM BKN020
     FM181800 11011KT P6SM BKN030
     FM190000 14006KT P6SM BKN040
     FM190400 20005KT P6SM BKN040=



000
FTUS41 KBOX 172327
TAFPVD
TAF
KPVD 172327Z 1800/1824 05010KT P6SM FEW040 SCT250
     FM180400 05006KT P6SM SCT025 BKN250
     FM180700 03006KT P6SM OVC020
     FM181000 04007KT P6SM OVC015
     FM181200 04007KT P6SM -DZ OVC010
     FM181400 05007KT P6SM OVC020
     FM181800 10007KT P6SM BKN030
     FM182300 17006KT P6SM BKN030=



000
FTUS41 KBOX 172327
TAFBOS
TAF
KBOS 172327Z 1800/1906 07010KT P6SM OVC250
     FM180300 07006KT P6SM BKN250
     FM181000 06007KT P6SM -DZ OVC010
     FM181200 06008KT P6SM OVC015
     FM181600 10010KT P6SM BKN020
     FM181800 11011KT P6SM BKN030
     FM190000 14006KT P6SM BKN040
     FM190400 20005KT P6SM BKN040=



000
FTUS41 KBOX 172111 AAB
TAFBOS
TAF AMD
KBOS 172111Z 1721/1824 07014KT P6SM BKN030
     FM172300 07010KT P6SM SCT035
     FM180900 05007KT P6SM -DZ OVC015
     FM181400 08008KT P6SM BKN020
     FM182300 13008KT P6SM BKN030=



000
FTUS41 KBOX 172111 AAA
TAFPVD
TAF AMD
KPVD 172111Z 1721/1818 06012G22KT P6SM SCT040
     FM172300 07013KT P6SM BKN035
     FM180300 04008KT P6SM SCT035
     FM180700 04007KT P6SM -DZ OVC010
     FM181300 04007KT P6SM OVC015=



000
FTUS41 KBOX 172111 AAA
TAFBDL
TAF AMD
KBDL 172111Z 1721/1824 14007KT P6SM SCT250
     FM180500 02004KT P6SM FEW200
     FM180900 VRB03KT P6SM BKN015
     FM181300 VRB03KT P6SM SCT025
     FM182000 16007KT P6SM SCT200=



000
FTUS41 KBOX 172111 AAA
TAFMHT
TAF AMD
KMHT 172111Z 1721/1818 09012KT P6SM SCT050 SCT250
     FM180200 VRB03KT P6SM FEW200
     FM181300 06005KT P6SM BKN250
     FM181700 12007KT P6SM SCT250=



000
FTUS41 KBOX 172111 AAB
TAFBOS
TAF AMD
KBOS 172111Z 1721/1824 07014KT P6SM BKN030
     FM172300 07010KT P6SM SCT035
     FM180900 05007KT P6SM -DZ OVC015
     FM181400 08008KT P6SM BKN020
     FM182300 13008KT P6SM BKN030=



000
FTUS41 KBOX 171912 AAA
TAFBOS
TAF AMD
KBOS 171912Z 1719/1824 07014KT P6SM BKN035
     FM172200 07010KT P6SM SCT035
     FM180900 05007KT P6SM -DZ OVC015
     FM181400 08008KT P6SM BKN020
     FM182300 13008KT P6SM BKN030=



000
FTUS41 KBOX 171912 AAA
TAFBOS
TAF AMD
KBOS 171912Z 1719/1824 07014KT P6SM BKN035
     FM172200 07010KT P6SM SCT035
     FM180900 05007KT P6SM -DZ OVC015
     FM181400 08008KT P6SM BKN020
     FM182300 13008KT P6SM BKN030=



000
FTUS41 KBOX 171909 AAA
TAFACK
TAF AMD
KACK 171909Z 1719/1818 05014G22KT P6SM BKN025
     FM172100 05012KT P6SM SCT025
     FM180500 07011KT P6SM -DZ OVC008=



000
FTUS41 KBOX 171722
TAFBOS
TAF
KBOS 171722Z 1718/1824 07014G21KT P6SM SCT035
     FM180000 07010KT P6SM SCT250
     FM180900 05007KT P6SM -DZ OVC015
     FM181400 08008KT P6SM BKN020
     FM182300 13008KT P6SM BKN030=



000
FTUS41 KBOX 171722
TAFBDL
TAF
KBDL 171722Z 1718/1824 06007KT P6SM SCT250
     FM180500 02004KT P6SM FEW200
     FM180900 VRB03KT P6SM BKN015
     FM181300 VRB03KT P6SM SCT025
     FM182000 16007KT P6SM SCT200=



000
FTUS41 KBOX 171722
TAFMHT
TAF
KMHT 171722Z 1718/1818 08008KT P6SM SCT250
     FM180200 VRB03KT P6SM FEW200
     FM181300 06005KT P6SM BKN250
     FM181700 12007KT P6SM SCT250=



000
FTUS41 KBOX 171722
TAFORH
TAF
KORH 171722Z 1718/1818 07008KT P6SM SCT250
     FM180800 VRB03KT P6SM -DZ BKN008
     FM181200 04005KT P6SM BKN015
     FM181600 11006KT P6SM SCT025=



000
FTUS41 KBOX 171722
TAFBOS
TAF
KBOS 171722Z 1718/1824 07014G21KT P6SM SCT035
     FM180000 07010KT P6SM SCT250
     FM180900 05007KT P6SM -DZ OVC015
     FM181400 08008KT P6SM BKN020
     FM182300 13008KT P6SM BKN030=



000
FTUS41 KBOX 171722
TAFBAF
TAF
KBAF 171722Z 1718/1818 04009KT P6SM SCT250
     FM180900 VRB03KT P6SM BKN015
     FM181500 21005KT P6SM SCT025=



000
FTUS41 KBOX 171722
TAFACK
TAF
KACK 171722Z 1718/1818 05014G22KT P6SM OVC025
     FM172200 05012KT P6SM OVC025
     FM180500 07011KT P6SM -DZ OVC008=



000
FTUS41 KBOX 171722
TAFPVD
TAF
KPVD 171722Z 1718/1818 05012G22KT P6SM SCT035
     FM172100 07013KT P6SM BKN035
     FM180300 04008KT P6SM SCT035
     FM180700 04007KT P6SM -DZ OVC010
     FM181300 04007KT P6SM OVC015=



000
FTUS41 KBOX 171412 AAA
TAFBOS
TAF AMD
KBOS 171412Z 1714/1818 06015G22KT P6SM SCT035 SCT250
     FM171900 07014KT P6SM BKN035
     FM172200 08012KT P6SM SCT035
     FM180600 06008KT P6SM FEW250
     FM181100 07010KT P6SM BKN020
     FM181400 08010KT P6SM BKN200=



000
FTUS41 KBOX 171412 AAA
TAFPVD
TAF AMD
KPVD 171412Z 1714/1812 05013G22KT P6SM SCT035
     FM171800 06011KT P6SM BKN035
     FM172200 06011KT P6SM SCT250
     FM180500 04007KT P6SM FEW250=



000
FTUS41 KBOX 171412 AAA
TAFORH
TAF AMD
KORH 171412Z 1714/1812 07009KT P6SM SKC
     FM180600 05005KT P6SM FEW200=



000
FTUS41 KBOX 171412 AAA
TAFBDL
TAF AMD
KBDL 171412Z 1714/1818 04011KT P6SM SCT250
     FM171800 08008KT P6SM SKC
     FM180600 02004KT P6SM FEW200
     FM181600 08005KT P6SM SCT200=



000
FTUS41 KBOX 171412 AAA
TAFMHT
TAF AMD
KMHT 171412Z 1714/1812 08009KT P6SM SCT250
     FM180200 07005KT P6SM FEW200=



000
FTUS41 KBOX 171412 AAA
TAFBOS
TAF AMD
KBOS 171412Z 1714/1818 06015G22KT P6SM SCT035 SCT250
     FM171900 07014KT P6SM BKN035
     FM172200 08012KT P6SM SCT035
     FM180600 06008KT P6SM FEW250
     FM181100 07010KT P6SM BKN020
     FM181400 08010KT P6SM BKN200=



000
FTUS41 KBOX 171412 AAA
TAFBAF
TAF AMD
KBAF 171412Z 1714/1812 04010KT P6SM SKC
     FM171800 09008KT P6SM SKC
     FM180500 03005KT P6SM FEW200=



000
FTUS41 KBOX 171412 AAB
TAFACK
TAF AMD
KACK 171412Z 1714/1812 05019G25KT P6SM OVC025
     FM172000 06020KT P6SM SCT025
     FM180800 07015KT P6SM BKN020=



000
FTUS41 KBOX 171224 AAA
TAFACK
TAF AMD
KACK 171224Z 1712/1812 04018G28KT P6SM BKN025
     FM171700 06018G28KT P6SM SCT030
     FM180400 07016G23KT P6SM SCT020
     FM180800 07015KT P6SM BKN020=



000
FTUS41 KBOX 171124
TAFACK
TAF
KACK 171124Z 1712/1812 04018G28KT P6SM SCT030 SCT250
     FM171300 05018G29KT P6SM BKN030
     FM171700 06018G28KT P6SM SCT030
     FM180400 07016G23KT P6SM SCT020
     FM180800 07015KT P6SM BKN020=



000
FTUS41 KBOX 171124
TAFPVD
TAF
KPVD 171124Z 1712/1812 03011G20KT P6SM SCT035 SCT250
     FM180200 05009KT P6SM FEW250=



000
FTUS41 KBOX 171124
TAFBDL
TAF
KBDL 171124Z 1712/1818 02007KT P6SM SCT250
     FM181700 10005KT P6SM SCT200=



000
FTUS41 KBOX 171124
TAFBOS
TAF
KBOS 171124Z 1712/1818 04012G21KT P6SM SCT035 SCT250
     FM180400 06009KT P6SM FEW250
     FM181200 07010KT P6SM BKN020
     FM181400 08010KT P6SM BKN200=



000
FTUS41 KBOX 171124
TAFORH
TAF
KORH 171124Z 1712/1812 05009KT P6SM SCT250
     FM180600 05005KT P6SM FEW200=



000
FTUS41 KBOX 171124
TAFMHT
TAF
KMHT 171124Z 1712/1812 03009KT P6SM SCT250
     FM180600 VRB03KT P6SM FEW200=



000
FTUS41 KBOX 171124
TAFBOS
TAF
KBOS 171124Z 1712/1818 04012G21KT P6SM SCT035 SCT250
     FM180400 06009KT P6SM FEW250
     FM181200 07010KT P6SM BKN020
     FM181400 08010KT P6SM BKN200=



000
FTUS41 KBOX 171124
TAFBAF
TAF
KBAF 171124Z 1712/1812 02009KT P6SM SKC
     FM180100 11007KT P6SM FEW200
     FM180400 05005KT P6SM FEW200=



    US Dept of Commerce
    National Oceanic and Atmospheric Administration
    National Weather Service
    1325 East West Highway
    Silver Spring, MD 20910
    Page Author: NWS Internet Services Team
Disclaimer
Information Quality
Credits
Glossary
Privacy Policy
Freedom of Information Act (FOIA)
About Us
Career Opportunities